createdAt,value
2023-05-21T00:00:14.469Z,8.55
2023-05-21T00:05:15.134Z,10.13
2023-05-21T00:07:43.269Z,11.48
2023-05-21T00:10:11.510Z,12.02
2023-05-21T00:12:40.448Z,11.63
2023-05-21T00:15:09.008Z,11.75
2023-05-21T00:17:37.852Z,10.20
2023-05-21T00:22:37.554Z,10.18
2023-05-21T00:25:06.115Z,11.80
2023-05-21T00:27:36.168Z,13.23
2023-05-21T00:30:07.104Z,11.43
2023-05-21T00:32:37.847Z,13.45
2023-05-21T00:35:07.812Z,11.50
2023-05-21T00:37:35.890Z,13.85
2023-05-21T00:42:40.075Z,10.73
2023-05-21T00:45:09.527Z,12.25
2023-05-21T00:47:38.162Z,10.82
2023-05-21T00:50:09.377Z,12.95
2023-05-21T00:52:44.396Z,13.95
2023-05-21T00:55:12.254Z,14.95
2023-05-21T00:57:43.258Z,16.73
2023-05-21T01:00:19.468Z,11.57
2023-05-21T01:02:47.962Z,10.20
2023-05-21T01:05:18.083Z,9.30
2023-05-21T01:07:46.926Z,12.45
2023-05-21T01:10:17.132Z,12.73
2023-05-21T01:12:47.910Z,13.25
2023-05-21T01:15:16.246Z,14.23
2023-05-21T01:17:48.519Z,12.05
2023-05-21T01:20:19.970Z,12.43
2023-05-21T01:22:58.242Z,10.75
2023-05-21T01:25:25.992Z,16.45
2023-05-21T01:27:53.782Z,10.45
2023-05-21T01:30:23.414Z,11.85
2023-05-21T01:33:05.290Z,16.20
2023-05-21T01:35:44.319Z,13.52
2023-05-21T01:38:24.033Z,10.10
2023-05-21T01:41:07.058Z,10.65
2023-05-21T01:43:41.562Z,10.38
2023-05-21T01:46:13.059Z,10.93
2023-05-21T01:48:44.150Z,12.05
2023-05-21T01:51:13.373Z,13.43
2023-05-21T01:53:41.688Z,10.60
2023-05-21T01:56:09.532Z,11.23
2023-05-21T01:58:38.634Z,11.85
2023-05-21T02:01:06.792Z,10.35
2023-05-21T02:03:35.818Z,13.38
2023-05-21T02:08:34.696Z,9.25
2023-05-21T02:11:02.997Z,10.82
2023-05-21T02:13:32.493Z,10.07
2023-05-21T02:16:01.777Z,10.43
2023-05-21T02:18:32.613Z,10.13
2023-05-21T02:21:00.579Z,11.27
2023-05-21T02:23:28.376Z,13.35
2023-05-21T02:25:59.099Z,13.45
2023-05-21T02:28:29.828Z,13.38
2023-05-21T02:30:59.139Z,12.90
2023-05-21T02:33:28.606Z,12.73
2023-05-21T02:35:59.168Z,11.27
2023-05-21T02:38:26.934Z,13.10
2023-05-21T02:40:55.485Z,10.35
2023-05-21T02:43:23.072Z,15.25
2023-05-21T02:45:53.900Z,14.82
2023-05-21T02:48:22.974Z,14.68
2023-05-21T02:50:50.830Z,11.45
2023-05-21T02:53:18.662Z,14.30
2023-05-21T02:55:46.427Z,12.60
2023-05-21T02:58:15.535Z,13.13
2023-05-21T03:00:43.547Z,14.85
2023-05-21T03:03:12.257Z,11.15
2023-05-21T03:05:44.167Z,13.13
2023-05-21T03:08:12.808Z,11.45
2023-05-21T03:13:10.152Z,10.02
2023-05-21T03:15:40.097Z,13.25
2023-05-21T03:18:10.646Z,12.48
2023-05-21T03:20:44.706Z,11.30
2023-05-21T03:23:16.903Z,10.25
2023-05-21T03:25:46.265Z,12.98
2023-05-21T03:28:17.734Z,14.05
2023-05-21T03:30:51.195Z,10.55
2023-05-21T03:33:57.164Z,10.85
2023-05-21T03:36:30.154Z,14.32
2023-05-21T03:38:58.350Z,12.75
2023-05-21T03:41:26.408Z,10.18
2023-05-21T03:44:05.193Z,8.40
2023-05-21T03:46:42.939Z,9.48
2023-05-21T03:49:17.937Z,10.20
2023-05-21T03:51:46.776Z,10.02
2023-05-21T03:54:18.351Z,9.30
2023-05-21T03:56:47.002Z,12.57
2023-05-21T03:59:14.647Z,12.68
2023-05-21T04:01:43.730Z,12.52
2023-05-21T04:04:15.206Z,9.77
2023-05-21T04:06:43.262Z,11.75
2023-05-21T04:09:11.955Z,11.80
2023-05-21T04:11:40.035Z,15.52
2023-05-21T04:14:07.786Z,11.50
2023-05-21T04:16:38.987Z,11.45
2023-05-21T04:19:07.216Z,10.40
2023-05-21T04:21:35.059Z,12.45
2023-05-21T04:24:04.271Z,14.68
2023-05-21T04:26:44.880Z,12.20
2023-05-21T04:29:18.206Z,16.65
2023-05-21T04:31:46.083Z,15.18
2023-05-21T04:34:18.011Z,11.02
2023-05-21T04:36:46.335Z,11.23
2023-05-21T04:39:15.956Z,11.73
2023-05-21T04:41:44.420Z,12.05
2023-05-21T04:44:17.299Z,15.35
2023-05-21T04:46:46.838Z,12.98
2023-05-21T04:49:15.797Z,12.85
2023-05-21T04:51:47.661Z,12.48
2023-05-21T04:54:15.829Z,12.70
2023-05-21T04:59:11.993Z,11.88
2023-05-21T05:01:40.429Z,10.70
2023-05-21T05:04:08.189Z,12.05
2023-05-21T05:06:36.489Z,12.25
2023-05-21T05:09:04.767Z,14.70
2023-05-21T05:11:34.410Z,14.52
2023-05-21T05:14:03.410Z,17.75
2023-05-21T05:16:31.336Z,12.30
2023-05-21T05:18:59.764Z,12.70
2023-05-21T05:21:27.532Z,18.13
2023-05-21T05:23:55.908Z,13.98
2023-05-21T05:26:27.508Z,14.63
2023-05-21T05:28:56.100Z,14.20
2023-05-21T05:31:26.123Z,15.63
2023-05-21T05:33:54.872Z,17.42
2023-05-21T05:36:25.026Z,16.70
2023-05-21T05:38:53.530Z,14.02
2023-05-21T05:41:21.531Z,16.52
2023-05-21T05:43:50.584Z,13.00
2023-05-21T05:46:19.402Z,17.65
2023-05-21T05:48:47.745Z,16.15
2023-05-21T05:51:17.534Z,15.73
2023-05-21T05:53:46.495Z,17.45
2023-05-21T05:56:14.679Z,21.50
2023-05-21T05:58:43.858Z,13.48
2023-05-21T06:01:16.557Z,16.15
2023-05-21T06:03:46.569Z,14.30
2023-05-21T06:06:19.842Z,24.52
2023-05-21T06:08:48.303Z,16.65
2023-05-21T06:11:17.521Z,13.27
2023-05-21T06:13:47.345Z,13.05
2023-05-21T06:16:18.022Z,13.32
2023-05-21T06:18:47.098Z,12.95
2023-05-21T06:21:16.752Z,13.50
2023-05-21T06:23:46.866Z,13.57
2023-05-21T06:26:15.624Z,11.32
2023-05-21T06:28:46.716Z,11.45
2023-05-21T06:31:16.613Z,10.65
2023-05-21T06:33:45.362Z,15.77
2023-05-21T06:36:13.225Z,10.70
2023-05-21T06:38:42.834Z,10.63
2023-05-21T06:41:11.374Z,15.63
2023-05-21T06:43:49.181Z,16.85
2023-05-21T06:46:36.001Z,14.05
2023-05-21T06:49:08.105Z,16.55
2023-05-21T06:51:36.351Z,12.30
2023-05-21T06:54:04.843Z,11.60
2023-05-21T06:56:34.818Z,9.85
2023-05-21T06:59:02.584Z,10.07
2023-05-21T07:01:30.987Z,6.85
2023-05-21T07:03:59.249Z,9.23
2023-05-21T07:06:28.457Z,11.90
2023-05-21T07:08:57.027Z,9.10
2023-05-21T07:11:28.799Z,7.85
2023-05-21T07:14:01.293Z,7.55
2023-05-21T07:16:30.137Z,6.03
2023-05-21T07:18:58.815Z,10.88
2023-05-21T07:21:27.035Z,5.25
2023-05-21T07:23:55.140Z,3.92
2023-05-21T07:26:23.896Z,8.07
2023-05-21T07:28:51.659Z,6.32
2023-05-21T07:31:24.002Z,5.65
2023-05-21T07:33:54.435Z,5.28
2023-05-21T07:36:27.344Z,6.30
2023-05-21T07:38:56.116Z,4.43
2023-05-21T07:41:23.868Z,5.03
2023-05-21T07:43:53.314Z,5.15
2023-05-21T07:46:21.478Z,3.88
2023-05-21T07:48:54.863Z,3.15
2023-05-21T07:51:22.617Z,4.45
2023-05-21T07:53:53.194Z,3.97
2023-05-21T07:56:27.892Z,3.67
2023-05-21T08:01:24.433Z,3.17
2023-05-21T08:03:53.232Z,3.63
2023-05-21T08:06:22.413Z,6.15
2023-05-21T08:08:50.971Z,4.20
2023-05-21T08:11:19.090Z,3.28
2023-05-21T08:13:47.009Z,3.53
2023-05-21T08:16:15.272Z,3.45
2023-05-21T08:18:43.697Z,3.58
2023-05-21T08:21:11.888Z,3.20
2023-05-21T08:23:41.033Z,4.15
2023-05-21T08:26:09.742Z,4.30
2023-05-21T08:28:40.233Z,5.85
2023-05-21T08:31:10.990Z,5.70
2023-05-21T08:33:39.725Z,4.28
2023-05-21T08:36:07.964Z,2.97
2023-05-21T08:38:49.793Z,4.72
2023-05-21T08:41:25.103Z,4.10
2023-05-21T08:43:57.715Z,3.28
2023-05-21T08:46:33.294Z,3.95
2023-05-21T08:49:03.805Z,4.13
2023-05-21T08:51:32.178Z,4.03
2023-05-21T08:54:02.745Z,3.45
2023-05-21T08:56:32.728Z,6.15
2023-05-21T08:59:01.687Z,6.32
2023-05-21T09:01:34.709Z,4.50
2023-05-21T09:04:21.387Z,5.68
2023-05-21T09:06:53.677Z,5.43
2023-05-21T09:09:58.155Z,3.83
2023-05-21T09:12:27.925Z,5.57
2023-05-21T09:14:58.775Z,4.15
2023-05-21T09:17:31.395Z,4.88
2023-05-21T09:20:14.975Z,6.63
2023-05-21T09:22:53.255Z,4.05
2023-05-21T09:25:28.117Z,4.28
2023-05-21T09:27:58.001Z,4.70
2023-05-21T09:30:34.915Z,4.80
2023-05-21T09:33:04.321Z,3.30
2023-05-21T09:38:01.929Z,3.70
2023-05-21T09:40:30.260Z,3.38
2023-05-21T09:42:58.602Z,3.78
2023-05-21T09:45:27.754Z,4.57
2023-05-21T09:47:58.323Z,4.97
2023-05-21T09:50:34.551Z,5.15
2023-05-21T09:53:02.275Z,3.80
2023-05-21T09:55:29.955Z,3.97
2023-05-21T09:57:59.459Z,5.00
2023-05-21T10:00:31.326Z,4.93
2023-05-21T10:03:01.926Z,3.35
2023-05-21T10:05:30.967Z,3.53
2023-05-21T10:08:04.439Z,4.95
2023-05-21T10:10:34.070Z,5.60
2023-05-21T10:13:08.761Z,4.20
2023-05-21T10:15:44.547Z,3.80
2023-05-21T10:18:13.881Z,4.05
2023-05-21T10:20:42.998Z,7.35
2023-05-21T10:23:11.140Z,3.47
2023-05-21T10:25:40.200Z,2.50
2023-05-21T10:28:08.161Z,3.15
2023-05-21T10:30:37.351Z,5.25
2023-05-21T10:33:06.230Z,5.07
2023-05-21T10:35:37.181Z,6.75
2023-05-21T10:38:07.028Z,6.15
2023-05-21T10:40:36.473Z,5.57
2023-05-21T10:43:35.673Z,5.22
2023-05-21T10:46:15.019Z,5.60
2023-05-21T10:49:11.022Z,4.15
2023-05-21T10:52:20.859Z,3.15
2023-05-21T10:54:57.477Z,5.85
2023-05-21T10:57:25.039Z,6.15
2023-05-21T10:59:53.392Z,5.10
2023-05-21T11:02:21.864Z,3.88
2023-05-21T11:04:58.870Z,6.05
2023-05-21T11:07:57.866Z,3.42
2023-05-21T11:10:38.389Z,3.22
2023-05-21T11:13:24.900Z,5.97
2023-05-21T11:16:02.658Z,5.40
2023-05-21T11:21:18.428Z,14.00
2023-05-21T11:23:59.074Z,3.88
2023-05-21T11:26:29.183Z,3.40
2023-05-21T11:29:06.308Z,4.90
2023-05-21T11:31:41.507Z,3.97
2023-05-21T11:34:18.776Z,3.60
2023-05-21T11:36:48.816Z,3.72
2023-05-21T11:39:24.338Z,3.70
2023-05-21T11:41:53.499Z,5.05
2023-05-21T11:44:40.976Z,4.22
2023-05-21T11:49:37.735Z,3.85
2023-05-21T11:52:06.956Z,4.13
2023-05-21T11:54:51.915Z,3.53
2023-05-21T11:57:20.093Z,4.18
2023-05-21T11:59:51.785Z,5.97
2023-05-21T12:02:22.071Z,2.67
2023-05-21T12:04:51.648Z,5.90
2023-05-21T12:07:20.989Z,5.68
2023-05-21T12:09:51.181Z,4.57
2023-05-21T12:12:23.061Z,4.47
2023-05-21T12:14:52.200Z,4.43
2023-05-21T12:17:22.059Z,4.13
2023-05-21T12:19:52.389Z,3.80
2023-05-21T12:22:20.942Z,3.70
2023-05-21T12:24:49.868Z,3.30
2023-05-21T12:27:19.316Z,4.97
2023-05-21T12:29:51.057Z,4.50
2023-05-21T12:32:20.743Z,3.35
2023-05-21T12:34:53.168Z,4.03
2023-05-21T12:37:22.993Z,4.50
2023-05-21T12:39:55.550Z,5.05
2023-05-21T12:42:31.204Z,3.75
2023-05-21T12:45:00.498Z,3.80
2023-05-21T12:47:30.751Z,5.32
2023-05-21T12:49:59.391Z,4.30
2023-05-21T12:52:27.783Z,4.10
2023-05-21T12:54:57.348Z,3.17
2023-05-21T12:57:28.313Z,4.50
2023-05-21T12:59:57.697Z,4.05
2023-05-21T13:02:26.252Z,5.57
2023-05-21T13:04:59.956Z,4.65
2023-05-21T13:07:28.930Z,4.15
2023-05-21T13:09:57.449Z,8.02
2023-05-21T13:12:30.151Z,6.97
2023-05-21T13:15:00.339Z,5.22
2023-05-21T13:17:28.900Z,4.35
2023-05-21T13:20:12.430Z,4.63
2023-05-21T13:22:48.243Z,5.65
2023-05-21T13:25:21.771Z,4.15
2023-05-21T13:27:51.155Z,4.93
2023-05-21T13:30:20.191Z,3.70
2023-05-21T13:32:48.430Z,6.03
2023-05-21T13:35:17.517Z,4.57
2023-05-21T13:37:46.198Z,5.65
2023-05-21T13:40:16.887Z,4.85
2023-05-21T13:42:46.502Z,6.28
2023-05-21T13:45:20.149Z,3.92
2023-05-21T13:47:48.687Z,5.40
2023-05-21T13:50:17.661Z,6.00
2023-05-21T13:52:47.279Z,5.80
2023-05-21T13:55:16.314Z,6.55
2023-05-21T13:57:44.651Z,4.13
2023-05-21T14:00:15.677Z,5.38
2023-05-21T14:02:45.875Z,5.78
2023-05-21T14:05:14.502Z,5.80
2023-05-21T14:07:43.807Z,5.35
2023-05-21T14:10:12.882Z,6.72
2023-05-21T14:12:41.200Z,4.63
2023-05-21T14:15:09.870Z,5.60
2023-05-21T14:17:40.309Z,6.40
2023-05-21T14:20:09.821Z,5.75
2023-05-21T14:22:38.547Z,3.97
2023-05-21T14:25:06.734Z,6.65
2023-05-21T14:27:40.047Z,4.65
2023-05-21T14:30:08.801Z,4.97
2023-05-21T14:32:37.212Z,4.82
2023-05-21T14:35:05.456Z,4.97
2023-05-21T14:37:33.166Z,5.18
2023-05-21T14:40:01.179Z,5.97
2023-05-21T14:42:28.978Z,5.45
2023-05-21T14:44:58.853Z,6.07
2023-05-21T14:47:28.056Z,6.50
2023-05-21T14:49:55.931Z,5.75
2023-05-21T14:52:26.611Z,5.05
2023-05-21T14:54:54.471Z,3.67
2023-05-21T14:57:23.152Z,5.95
2023-05-21T14:59:51.901Z,3.85
2023-05-21T15:02:19.754Z,4.60
2023-05-21T15:04:47.550Z,6.25
2023-05-21T15:07:16.030Z,5.75
2023-05-21T15:09:44.804Z,5.07
2023-05-21T15:12:12.519Z,9.35
2023-05-21T15:14:41.011Z,6.60
2023-05-21T15:17:09.871Z,6.35
2023-05-21T15:19:37.739Z,6.20
2023-05-21T15:22:05.523Z,5.35
2023-05-21T15:24:35.942Z,4.88
2023-05-21T15:27:03.911Z,4.95
2023-05-21T15:29:31.983Z,6.13
2023-05-21T15:32:01.219Z,5.25
2023-05-21T15:34:29.739Z,4.60
2023-05-21T15:37:00.929Z,4.50
2023-05-21T15:39:29.052Z,4.40
2023-05-21T15:41:56.795Z,4.60
2023-05-21T15:44:28.828Z,6.13
2023-05-21T15:47:00.026Z,5.50
2023-05-21T15:49:31.776Z,4.63
2023-05-21T15:52:04.158Z,6.30
2023-05-21T15:54:32.021Z,5.97
2023-05-21T15:56:59.843Z,6.70
2023-05-21T15:59:27.700Z,6.15
2023-05-21T16:01:57.321Z,4.68
2023-05-21T16:04:43.919Z,5.25
2023-05-21T16:07:14.272Z,5.15
2023-05-21T16:09:42.735Z,6.47
2023-05-21T16:12:11.885Z,4.25
2023-05-21T16:14:40.528Z,5.97
2023-05-21T16:17:08.696Z,5.03
2023-05-21T16:19:38.743Z,3.67
2023-05-21T16:22:07.854Z,6.15
2023-05-21T16:24:37.379Z,6.40
2023-05-21T16:27:05.359Z,5.25
2023-05-21T16:29:33.021Z,3.58
2023-05-21T16:32:01.008Z,5.25
2023-05-21T16:34:29.247Z,4.57
2023-05-21T16:36:57.079Z,5.20
2023-05-21T16:39:25.234Z,5.70
2023-05-21T16:41:55.222Z,6.07
2023-05-21T16:44:23.028Z,5.65
2023-05-21T16:46:51.206Z,3.60
2023-05-21T16:49:20.025Z,4.28
2023-05-21T16:51:47.645Z,4.70
2023-05-21T16:54:15.531Z,6.32
2023-05-21T16:56:43.546Z,5.47
2023-05-21T16:59:11.419Z,6.63
2023-05-21T17:01:39.598Z,3.75
2023-05-21T17:04:07.844Z,4.43
2023-05-21T17:06:35.752Z,3.47
2023-05-21T17:09:03.925Z,5.13
2023-05-21T17:11:32.080Z,5.03
2023-05-21T17:14:01.297Z,4.47
2023-05-21T17:16:29.094Z,7.22
2023-05-21T17:18:56.940Z,6.10
2023-05-21T17:21:26.500Z,3.53
2023-05-21T17:23:54.153Z,6.10
2023-05-21T17:26:22.480Z,4.63
2023-05-21T17:28:50.583Z,5.55
2023-05-21T17:31:18.307Z,8.23
2023-05-21T17:33:46.364Z,5.68
2023-05-21T17:36:14.153Z,6.07
2023-05-21T17:38:42.099Z,4.50
2023-05-21T17:41:10.384Z,6.75
2023-05-21T17:43:38.154Z,8.63
2023-05-21T17:46:07.573Z,3.40
2023-05-21T17:48:36.204Z,6.38
2023-05-21T17:51:04.821Z,6.35
2023-05-21T17:53:32.540Z,4.60
2023-05-21T17:56:00.267Z,5.07
2023-05-21T17:58:32.536Z,6.18
2023-05-21T18:01:00.601Z,6.63
2023-05-21T18:03:28.381Z,5.90
2023-05-21T18:05:56.355Z,3.83
2023-05-21T18:08:24.751Z,6.30
2023-05-21T18:10:52.604Z,8.77
2023-05-21T18:13:20.245Z,6.82
2023-05-21T18:18:20.730Z,7.28
2023-05-21T18:20:50.254Z,5.68
2023-05-21T18:23:18.403Z,6.32
2023-05-21T18:25:46.690Z,7.88
2023-05-21T18:28:14.607Z,6.32
2023-05-21T18:30:43.082Z,6.78
2023-05-21T18:33:12.624Z,6.32
2023-05-21T18:35:41.544Z,6.55
2023-05-21T18:38:12.241Z,9.65
2023-05-21T18:40:40.325Z,7.63
2023-05-21T18:43:10.848Z,7.18
2023-05-21T18:45:40.969Z,5.70
2023-05-21T18:48:08.673Z,9.23
2023-05-21T18:53:06.376Z,8.52
2023-05-21T18:55:35.132Z,10.15
2023-05-21T18:58:03.458Z,7.78
2023-05-21T19:00:34.390Z,7.78
2023-05-21T19:03:02.866Z,11.02
2023-05-21T19:05:30.958Z,13.13
2023-05-21T19:07:59.494Z,10.32
2023-05-21T19:10:27.351Z,11.32
2023-05-21T19:12:55.213Z,7.57
2023-05-21T19:15:22.899Z,7.18
2023-05-21T19:17:51.926Z,9.70
2023-05-21T19:20:29.998Z,5.80
2023-05-21T19:22:58.128Z,6.93
2023-05-21T19:25:25.791Z,9.57
2023-05-21T19:30:22.005Z,7.80
2023-05-21T19:32:53.139Z,9.70
2023-05-21T19:35:22.523Z,8.93
2023-05-21T19:37:50.586Z,10.30
2023-05-21T19:40:21.200Z,8.32
2023-05-21T19:42:49.378Z,8.75
2023-05-21T19:45:18.433Z,9.65
2023-05-21T19:47:51.470Z,7.28
2023-05-21T19:50:26.763Z,9.48
2023-05-21T19:52:55.756Z,9.75
2023-05-21T19:55:24.785Z,8.57
2023-05-21T19:57:52.936Z,7.75
2023-05-21T20:02:48.638Z,9.23
2023-05-21T20:05:16.462Z,8.70
2023-05-21T20:10:14.312Z,10.65
2023-05-21T20:12:42.666Z,8.70
2023-05-21T20:15:13.245Z,8.85
2023-05-21T20:17:44.309Z,10.02
2023-05-21T20:20:15.083Z,8.70
2023-05-21T20:22:43.587Z,8.50
2023-05-21T20:27:41.627Z,8.40
2023-05-21T20:30:09.945Z,11.88
2023-05-21T20:32:38.031Z,11.30
2023-05-21T20:35:09.265Z,10.32
2023-05-21T20:37:36.985Z,12.13
2023-05-21T20:40:07.207Z,10.93
2023-05-21T20:42:37.314Z,7.97
2023-05-21T20:45:06.729Z,9.98
2023-05-21T20:47:34.618Z,12.60
2023-05-21T20:52:32.169Z,9.50
2023-05-21T20:55:01.544Z,12.77
2023-05-21T20:57:30.859Z,10.90
2023-05-21T20:59:58.820Z,11.73
2023-05-21T21:02:27.094Z,10.15
2023-05-21T21:04:55.063Z,9.85
2023-05-21T21:07:24.386Z,9.98
2023-05-21T21:09:54.612Z,9.57
2023-05-21T21:12:26.603Z,9.18
2023-05-21T21:14:58.665Z,13.90
2023-05-21T21:17:26.474Z,10.68
2023-05-21T21:19:55.188Z,8.43
2023-05-21T21:22:26.128Z,10.07
2023-05-21T21:24:55.679Z,9.88
2023-05-21T21:27:23.782Z,12.40
2023-05-21T21:29:51.785Z,11.82
2023-05-21T21:32:19.798Z,11.27
2023-05-21T21:34:47.916Z,9.20
2023-05-21T21:37:16.387Z,10.65
2023-05-21T21:39:45.269Z,13.40
2023-05-21T21:42:13.700Z,13.23
2023-05-21T21:44:42.983Z,13.02
2023-05-21T21:47:11.760Z,9.30
2023-05-21T21:49:40.071Z,11.43
2023-05-21T21:54:36.629Z,8.88
2023-05-21T21:57:04.344Z,11.10
2023-05-21T21:59:32.503Z,12.95
2023-05-21T22:04:28.114Z,12.10
2023-05-21T22:06:56.030Z,12.85
2023-05-21T22:09:24.001Z,11.95
2023-05-21T22:11:52.157Z,9.80
2023-05-21T22:14:19.780Z,11.13
2023-05-21T22:16:48.865Z,10.20
2023-05-21T22:19:20.586Z,11.80
2023-05-21T22:21:49.231Z,9.77
2023-05-21T22:24:30.930Z,10.35
2023-05-21T22:27:00.131Z,13.70
2023-05-21T22:29:27.892Z,11.50
2023-05-21T22:31:57.572Z,11.23
2023-05-21T22:34:25.443Z,10.73
2023-05-21T22:39:20.871Z,12.52
2023-05-21T22:41:48.834Z,13.05
2023-05-21T22:46:44.784Z,13.43
2023-05-21T22:51:45.047Z,11.38
2023-05-21T22:54:12.976Z,13.07
2023-05-21T22:59:08.760Z,11.77
2023-05-21T23:01:38.094Z,12.65
2023-05-21T23:04:06.008Z,11.27
2023-05-21T23:06:33.734Z,12.18
2023-05-21T23:09:01.678Z,11.23
2023-05-21T23:13:57.130Z,11.65
2023-05-21T23:16:25.530Z,11.13
2023-05-21T23:18:55.105Z,13.07
2023-05-21T23:21:23.040Z,10.90
2023-05-21T23:26:18.744Z,12.60
2023-05-21T23:28:47.485Z,12.45
2023-05-21T23:31:16.029Z,12.25
2023-05-21T23:33:44.210Z,13.02
2023-05-21T23:36:12.149Z,13.82
2023-05-21T23:38:42.280Z,17.92
2023-05-21T23:41:10.251Z,13.75
2023-05-21T23:46:08.501Z,11.05
2023-05-21T23:48:36.288Z,12.55
2023-05-21T23:51:04.198Z,13.48
2023-05-21T23:53:31.991Z,14.23
2023-05-21T23:56:03.697Z,14.35
2023-05-21T23:58:32.264Z,10.45
